createdAt,value
2019-02-07T00:00:25.247Z,101217.64
2019-02-07T00:02:58.766Z,101209.23
2019-02-07T00:05:30.610Z,101198.81
2019-02-07T00:08:02.525Z,101189.04
2019-02-07T00:10:34.364Z,101189.45
2019-02-07T00:13:06.303Z,101180.13
2019-02-07T00:15:38.205Z,101175.76
2019-02-07T00:18:10.185Z,101174.36
2019-02-07T00:20:43.373Z,101169.50
2019-02-07T00:23:15.229Z,101169.80
2019-02-07T00:25:47.125Z,101166.37
2019-02-07T00:28:19.056Z,101163.89
2019-02-07T00:30:50.872Z,101150.74
2019-02-07T00:33:22.676Z,101140.43
2019-02-07T00:35:56.246Z,101131.45
2019-02-07T00:38:28.185Z,101136.95
2019-02-07T00:40:59.999Z,101136.64
2019-02-07T00:43:31.968Z,101137.83
2019-02-07T00:46:03.766Z,101154.25
2019-02-07T00:48:35.774Z,101164.44
2019-02-07T00:51:07.617Z,101167.08
2019-02-07T00:53:39.427Z,101171.42
2019-02-07T00:56:11.351Z,101171.58
2019-02-07T00:58:44.225Z,101164.14
2019-02-07T01:01:16.057Z,101160.70
2019-02-07T01:03:47.856Z,101160.09
2019-02-07T01:06:19.717Z,101166.88
2019-02-07T01:08:51.567Z,101172.33
2019-02-07T01:11:23.680Z,101165.19
2019-02-07T01:13:57.822Z,101167.99
2019-02-07T01:16:29.621Z,101163.89
2019-02-07T01:19:01.427Z,101152.00
2019-02-07T01:21:33.513Z,101157.01
2019-02-07T01:24:05.699Z,101150.84
2019-02-07T01:26:37.540Z,101143.47
2019-02-07T01:29:09.563Z,101139.93
2019-02-07T01:31:41.460Z,101145.77
2019-02-07T01:34:13.748Z,101138.55
2019-02-07T01:36:47.251Z,101137.42
2019-02-07T01:39:19.150Z,101127.12
2019-02-07T01:41:51.030Z,101122.94
2019-02-07T01:44:22.949Z,101127.91
2019-02-07T01:46:54.842Z,101119.61
2019-02-07T01:49:26.905Z,101117.98
2019-02-07T01:51:58.818Z,101110.08
2019-02-07T01:54:30.706Z,101100.57
2019-02-07T01:57:02.595Z,101091.36
2019-02-07T01:59:34.511Z,101096.67
2019-02-07T02:02:06.715Z,101097.33
2019-02-07T02:04:38.575Z,101098.91
2019-02-07T02:07:10.555Z,101086.33
2019-02-07T02:09:42.451Z,101086.16
2019-02-07T02:12:14.273Z,101076.99
2019-02-07T02:14:46.308Z,101076.11
2019-02-07T02:17:21.381Z,101070.38
2019-02-07T02:19:53.574Z,101070.55
2019-02-07T02:22:25.443Z,101060.77
2019-02-07T02:24:57.395Z,101063.75
2019-02-07T02:27:29.315Z,101069.01
2019-02-07T02:30:05.480Z,101058.20
2019-02-07T02:32:37.542Z,101057.59
2019-02-07T02:35:09.508Z,101046.15
2019-02-07T02:37:41.734Z,101047.45
2019-02-07T02:40:15.671Z,101045.95
2019-02-07T02:42:47.671Z,101048.83
2019-02-07T02:45:22.399Z,101046.15
2019-02-07T02:47:55.726Z,101042.83
2019-02-07T02:50:27.895Z,101035.67
2019-02-07T02:52:59.731Z,101028.66
2019-02-07T02:55:34.386Z,101029.83
2019-02-07T02:58:06.932Z,101022.20
2019-02-07T03:01:18.633Z,101028.53
2019-02-07T03:04:09.540Z,101022.86
2019-02-07T03:06:57.389Z,101023.47
2019-02-07T03:09:51.139Z,101016.87
2019-02-07T03:13:00.512Z,101017.55
2019-02-07T03:15:52.880Z,101016.42
2019-02-07T03:18:49.826Z,101004.55
2019-02-07T03:21:52.752Z,100995.20
2019-02-07T03:24:53.672Z,100990.98
2019-02-07T03:27:40.234Z,100983.47
2019-02-07T03:30:30.326Z,100980.10
2019-02-07T03:33:38.436Z,100974.64
2019-02-07T03:36:22.830Z,100971.24
2019-02-07T03:39:28.623Z,100975.81
2019-02-07T03:42:25.834Z,100968.78
2019-02-07T03:45:16.386Z,100958.59
2019-02-07T03:47:59.533Z,100950.86
2019-02-07T03:50:50.620Z,100954.50
2019-02-07T03:53:40.522Z,100945.22
2019-02-07T03:56:29.791Z,100958.13
2019-02-07T03:59:20.481Z,100953.36
2019-02-07T04:02:15.376Z,100946.81
2019-02-07T04:05:07.707Z,100938.83
2019-02-07T04:08:12.366Z,100933.03
2019-02-07T04:11:15.253Z,100931.34
2019-02-07T04:14:04.976Z,100925.02
2019-02-07T04:16:59.172Z,100919.27
2019-02-07T04:19:52.945Z,100913.73
2019-02-07T04:22:40.858Z,100908.80
2019-02-07T04:25:38.064Z,100902.41
2019-02-07T04:28:35.338Z,100897.44
2019-02-07T04:31:26.279Z,100890.55
2019-02-07T04:34:16.294Z,100889.77
2019-02-07T04:37:06.526Z,100880.77
2019-02-07T04:40:00.357Z,100879.47
2019-02-07T04:42:49.678Z,100872.08
2019-02-07T04:45:33.110Z,100872.02
2019-02-07T04:48:17.447Z,100865.37
2019-02-07T04:51:04.452Z,100864.29
2019-02-07T04:53:52.934Z,100869.47
2019-02-07T04:56:46.765Z,100865.45
2019-02-07T04:59:52.705Z,100862.03
2019-02-07T05:02:49.767Z,100860.40
2019-02-07T05:05:39.356Z,100862.80
2019-02-07T05:08:30.598Z,100853.52
2019-02-07T05:11:21.604Z,100852.41
2019-02-07T05:14:21.644Z,100849.67
2019-02-07T05:17:17.879Z,100841.95
2019-02-07T05:20:21.112Z,100839.95
2019-02-07T05:23:13.480Z,100836.81
2019-02-07T05:26:21.249Z,100834.69
2019-02-07T05:29:16.172Z,100830.59
2019-02-07T05:32:20.016Z,100832.89
2019-02-07T05:35:17.483Z,100827.92
2019-02-07T05:38:10.700Z,100823.56
2019-02-07T05:41:10.515Z,100822.80
2019-02-07T05:44:06.506Z,100825.92
2019-02-07T05:46:55.395Z,100827.16
2019-02-07T05:49:56.059Z,100834.80
2019-02-07T05:52:46.800Z,100835.07
2019-02-07T05:55:46.897Z,100832.77
2019-02-07T05:58:34.187Z,100831.73
2019-02-07T06:01:29.575Z,100826.09
2019-02-07T06:04:34.412Z,100817.38
2019-02-07T06:07:27.605Z,100816.08
2019-02-07T06:10:17.360Z,100812.86
2019-02-07T06:13:07.385Z,100813.22
2019-02-07T06:15:48.089Z,100819.08
2019-02-07T06:18:33.040Z,100819.55
2019-02-07T06:21:14.967Z,100820.64
2019-02-07T06:24:07.339Z,100817.91
2019-02-07T06:26:47.913Z,100819.11
2019-02-07T06:29:48.453Z,100817.52
2019-02-07T06:32:34.833Z,100814.16
2019-02-07T06:35:31.624Z,100811.56
2019-02-07T06:38:30.968Z,100811.67
2019-02-07T06:41:24.984Z,100810.93
2019-02-07T06:44:19.399Z,100808.56
2019-02-07T06:47:20.445Z,100807.88
2019-02-07T06:50:03.570Z,100813.42
2019-02-07T06:53:05.529Z,100807.48
2019-02-07T06:56:10.250Z,100805.66
2019-02-07T06:59:03.919Z,100815.39
2019-02-07T07:01:55.859Z,100814.91
2019-02-07T07:05:03.194Z,100809.59
2019-02-07T07:08:00.325Z,100807.29
2019-02-07T07:10:59.837Z,100801.62
2019-02-07T07:13:50.467Z,100806.77
2019-02-07T07:16:35.251Z,100797.14
2019-02-07T07:19:26.105Z,100788.47
2019-02-07T07:22:17.040Z,100791.53
2019-02-07T07:25:06.711Z,100773.23
2019-02-07T07:28:03.696Z,100776.23
2019-02-07T07:30:58.109Z,100773.28
2019-02-07T07:33:51.653Z,100762.28
2019-02-07T07:36:42.260Z,100762.64
2019-02-07T07:39:34.248Z,100765.69
2019-02-07T07:42:28.003Z,100762.17
2019-02-07T07:45:23.339Z,100762.02
2019-02-07T07:48:32.224Z,100760.70
2019-02-07T07:51:21.676Z,100761.45
2019-02-07T07:54:10.458Z,100765.66
2019-02-07T07:57:04.529Z,100758.23
2019-02-07T07:59:55.284Z,100750.88
2019-02-07T08:02:45.145Z,100757.88
2019-02-07T08:05:44.690Z,100746.97
2019-02-07T08:08:34.605Z,100752.98
2019-02-07T08:11:24.522Z,100748.73
2019-02-07T08:14:14.837Z,100746.01
2019-02-07T08:17:23.912Z,100748.04
2019-02-07T08:20:13.297Z,100739.33
2019-02-07T08:23:00.564Z,100732.81
2019-02-07T08:25:42.360Z,100729.34
2019-02-07T08:28:42.204Z,100725.77
2019-02-07T08:31:38.767Z,100716.81
2019-02-07T08:34:28.305Z,100726.94
2019-02-07T08:37:17.726Z,100724.22
2019-02-07T08:40:24.170Z,100716.23
2019-02-07T08:43:13.770Z,100701.41
2019-02-07T08:45:54.362Z,100701.72
2019-02-07T08:49:03.614Z,100692.36
2019-02-07T08:51:53.150Z,100686.00
2019-02-07T08:54:43.808Z,100686.47
2019-02-07T08:57:34.475Z,100684.42
2019-02-07T09:00:20.237Z,100675.87
2019-02-07T09:03:11.232Z,100669.50
2019-02-07T09:05:55.507Z,100659.58
2019-02-07T09:08:49.472Z,100655.30
2019-02-07T09:11:52.220Z,100647.42
2019-02-07T09:14:45.709Z,100649.66
2019-02-07T09:17:34.117Z,100637.47
2019-02-07T09:20:23.978Z,100632.69
2019-02-07T09:23:27.076Z,100626.98
2019-02-07T09:26:27.457Z,100611.75
2019-02-07T09:29:16.354Z,100599.94
2019-02-07T09:32:05.844Z,100589.90
2019-02-07T09:34:59.614Z,100584.64
2019-02-07T09:37:48.538Z,100592.97
2019-02-07T09:40:34.969Z,100593.86
2019-02-07T09:43:25.589Z,100595.20
2019-02-07T09:46:31.910Z,100594.78
2019-02-07T09:49:21.674Z,100595.20
2019-02-07T09:52:15.241Z,100584.25
2019-02-07T09:55:08.989Z,100584.26
2019-02-07T09:58:14.822Z,100587.34
2019-02-07T10:00:55.226Z,100592.13
2019-02-07T10:04:04.320Z,100593.48
2019-02-07T10:06:53.906Z,100586.86
2019-02-07T10:09:42.908Z,100594.30
2019-02-07T10:12:42.662Z,100577.70
2019-02-07T10:15:33.792Z,100567.19
2019-02-07T10:18:32.839Z,100570.25
2019-02-07T10:21:18.997Z,100562.82
2019-02-07T10:23:58.329Z,100558.02
2019-02-07T10:27:05.574Z,100563.70
2019-02-07T10:29:56.304Z,100558.89
2019-02-07T10:33:06.782Z,100555.84
2019-02-07T10:36:03.208Z,100541.84
2019-02-07T10:38:46.627Z,100534.43
2019-02-07T10:41:37.332Z,100527.42
2019-02-07T10:44:34.195Z,100527.42
2019-02-07T10:47:30.943Z,100519.11
2019-02-07T10:50:21.275Z,100526.55
2019-02-07T10:53:20.934Z,100501.14
2019-02-07T10:56:18.073Z,100502.42
2019-02-07T10:59:08.051Z,100500.61
2019-02-07T11:02:11.339Z,100490.98
2019-02-07T11:05:04.827Z,100485.69
2019-02-07T11:07:52.675Z,100484.78
2019-02-07T11:10:58.811Z,100483.42
2019-02-07T11:13:45.249Z,100472.55
2019-02-07T11:16:48.011Z,100477.77
2019-02-07T11:19:37.626Z,100478.59
2019-02-07T11:22:35.791Z,100461.37
2019-02-07T11:25:28.211Z,100458.30
2019-02-07T11:28:11.427Z,100461.52
2019-02-07T11:31:02.180Z,100460.55
2019-02-07T11:34:10.197Z,100451.72
2019-02-07T11:37:00.990Z,100438.52
2019-02-07T11:39:45.766Z,100439.58
2019-02-07T11:42:48.878Z,100439.28
2019-02-07T11:46:00.343Z,100437.70
2019-02-07T11:48:53.015Z,100443.22
2019-02-07T11:51:45.431Z,100452.14
2019-02-07T11:54:44.756Z,100453.41
2019-02-07T11:57:47.469Z,100453.73
2019-02-07T12:00:49.829Z,100456.56
2019-02-07T12:03:39.855Z,100457.03
2019-02-07T12:06:40.275Z,100445.14
2019-02-07T12:09:40.436Z,100447.34
2019-02-07T12:12:40.448Z,100439.44
2019-02-07T12:15:30.730Z,100425.39
2019-02-07T12:18:19.870Z,100428.38
2019-02-07T12:21:02.913Z,100422.30
2019-02-07T12:23:55.955Z,100419.74
2019-02-07T12:26:52.513Z,100426.71
2019-02-07T12:29:44.089Z,100429.90
2019-02-07T12:32:31.162Z,100429.05
2019-02-07T12:35:14.570Z,100421.55
2019-02-07T12:37:57.734Z,100416.28
2019-02-07T12:40:48.584Z,100417.25
2019-02-07T12:43:42.171Z,100414.16
2019-02-07T12:46:34.599Z,100405.77
2019-02-07T12:49:29.378Z,100404.43
2019-02-07T12:52:20.733Z,100412.37
2019-02-07T12:55:18.335Z,100401.80
2019-02-07T12:58:15.572Z,100403.11
2019-02-07T13:01:05.783Z,100398.74
2019-02-07T13:04:02.859Z,100417.61
2019-02-07T13:06:59.424Z,100408.89
2019-02-07T13:09:39.614Z,100406.27
2019-02-07T13:12:36.378Z,100394.00
2019-02-07T13:15:38.447Z,100396.67
2019-02-07T13:18:19.693Z,100396.65
2019-02-07T13:21:23.024Z,100391.03
2019-02-07T13:24:19.878Z,100389.67
2019-02-07T13:27:13.462Z,100376.91
2019-02-07T13:30:02.858Z,100369.42
2019-02-07T13:33:05.919Z,100369.47
2019-02-07T13:35:59.798Z,100371.66
2019-02-07T13:39:09.115Z,100367.31
2019-02-07T13:42:15.504Z,100362.09
2019-02-07T13:45:06.409Z,100359.94
2019-02-07T13:47:47.579Z,100364.78
2019-02-07T13:50:32.645Z,100365.67
2019-02-07T13:53:26.241Z,100356.91
2019-02-07T13:56:06.578Z,100354.33
2019-02-07T13:58:57.298Z,100353.88
2019-02-07T14:01:50.250Z,100350.38
2019-02-07T14:04:34.270Z,100344.16
2019-02-07T14:07:25.802Z,100338.95
2019-02-07T14:10:25.666Z,100336.39
2019-02-07T14:13:15.528Z,100350.42
2019-02-07T14:16:15.234Z,100348.67
2019-02-07T14:19:21.059Z,100342.09
2019-02-07T14:22:11.734Z,100342.98
2019-02-07T14:25:14.678Z,100347.39
2019-02-07T14:28:04.231Z,100347.39
2019-02-07T14:30:55.124Z,100349.16
2019-02-07T14:33:44.590Z,100348.72
2019-02-07T14:36:34.266Z,100350.44
2019-02-07T14:39:28.397Z,100343.91
2019-02-07T14:42:19.057Z,100333.44
2019-02-07T14:45:25.169Z,100345.23
2019-02-07T14:47:56.986Z,100353.08
2019-02-07T14:50:28.851Z,100356.13
2019-02-07T14:53:02.067Z,100356.16
2019-02-07T14:55:34.118Z,100355.28
2019-02-07T14:58:06.017Z,100352.66
2019-02-07T15:00:39.847Z,100350.91
2019-02-07T15:03:11.933Z,100353.09
2019-02-07T15:05:47.345Z,100346.97
2019-02-07T15:08:37.745Z,100339.98
2019-02-07T15:11:37.573Z,100339.12
2019-02-07T15:15:33.780Z,100332.14
2019-02-07T15:23:54.656Z,100338.66
2019-02-07T15:32:31.305Z,100336.47
2019-02-07T15:36:00.160Z,100338.20
2019-02-07T15:46:03.761Z,100341.70
2019-02-07T15:49:55.013Z,100332.99
2019-02-07T15:53:47.137Z,100334.74
2019-02-07T15:56:56.530Z,100332.52
2019-02-07T15:59:51.313Z,100337.28
2019-02-07T16:03:14.734Z,100342.49
2019-02-07T16:06:51.607Z,100339.38
2019-02-07T16:18:22.483Z,100350.25
2019-02-07T16:20:59.564Z,100352.87
2019-02-07T16:23:31.833Z,100357.27
2019-02-07T16:26:09.877Z,100360.31
2019-02-07T16:28:41.157Z,100362.50
2019-02-07T16:32:41.630Z,100365.14
2019-02-07T16:35:19.579Z,100362.97
2019-02-07T16:37:55.600Z,100360.77
2019-02-07T16:40:28.015Z,100362.09
2019-02-07T16:43:07.121Z,100353.39
2019-02-07T16:49:30.165Z,100361.58
2019-02-07T16:57:13.634Z,100361.58
2019-02-07T17:00:00.934Z,100382.91
2019-02-07T17:03:46.848Z,100388.92
2019-02-07T17:05:40.136Z,100389.30
2019-02-07T17:08:13.941Z,100401.42
2019-02-07T17:10:47.078Z,100398.34
2019-02-07T17:13:19.360Z,100393.18
2019-02-07T17:15:51.660Z,100402.70
2019-02-07T17:18:23.554Z,100396.28
2019-02-07T17:20:55.653Z,100405.05
2019-02-07T17:23:28.212Z,100407.16
2019-02-07T17:26:02.135Z,100411.13
2019-02-07T17:28:34.098Z,100415.06
2019-02-07T17:31:06.252Z,100415.07
2019-02-07T17:33:38.200Z,100414.58
2019-02-07T17:36:10.234Z,100409.88
2019-02-07T17:38:42.391Z,100407.22
2019-02-07T17:41:14.357Z,100401.06
2019-02-07T17:43:46.458Z,100403.19
2019-02-07T17:46:18.522Z,100408.02
2019-02-07T17:48:50.595Z,100404.16
2019-02-07T17:51:23.502Z,100403.19
2019-02-07T17:53:55.529Z,100404.54
2019-02-07T17:56:27.478Z,100399.28
2019-02-07T17:59:01.667Z,100400.95
2019-02-07T18:01:33.667Z,100408.02
2019-02-07T18:04:05.621Z,100406.68
2019-02-07T18:06:37.619Z,100410.60
2019-02-07T18:09:11.392Z,100411.46
2019-02-07T18:11:43.560Z,100413.21
2019-02-07T18:14:15.738Z,100410.27
2019-02-07T18:16:49.285Z,100409.36
2019-02-07T18:19:21.209Z,100414.20
2019-02-07T18:21:53.152Z,100412.92
2019-02-07T18:24:25.072Z,100414.58
2019-02-07T18:26:57.388Z,100419.38
2019-02-07T18:29:29.537Z,100426.36
2019-02-07T18:32:03.657Z,100428.23
2019-02-07T18:34:35.275Z,100419.54
2019-02-07T18:37:08.922Z,100424.77
2019-02-07T18:39:41.097Z,100439.93
2019-02-07T18:42:25.129Z,100440.74
2019-02-07T18:44:57.234Z,100450.75
2019-02-07T18:47:29.504Z,100448.60
2019-02-07T18:50:01.604Z,100443.31
2019-02-07T18:54:23.064Z,100438.49
2019-02-07T18:56:48.800Z,100449.43
2019-02-07T18:59:22.455Z,100447.59
2019-02-07T19:01:57.757Z,100454.55
2019-02-07T19:04:29.735Z,100459.78
2019-02-07T19:07:01.891Z,100455.33
2019-02-07T19:09:35.627Z,100458.79
2019-02-07T19:12:07.814Z,100454.84
2019-02-07T19:14:39.987Z,100458.38
2019-02-07T19:17:11.908Z,100458.77
2019-02-07T19:19:43.892Z,100465.73
2019-02-07T19:22:21.804Z,100474.36
2019-02-07T19:24:55.356Z,100478.69
2019-02-07T19:27:27.241Z,100473.91
2019-02-07T19:29:59.216Z,100483.48
2019-02-07T19:32:31.295Z,100483.44
2019-02-07T19:35:06.195Z,100489.05
2019-02-07T19:37:40.500Z,100495.13
2019-02-07T19:40:13.698Z,100506.47
2019-02-07T19:42:45.896Z,100504.63
2019-02-07T19:45:18.644Z,100504.59
2019-02-07T19:47:52.214Z,100509.87
2019-02-07T19:50:37.781Z,100510.34
2019-02-07T19:53:09.988Z,100509.98
2019-02-07T19:55:42.289Z,100513.52
2019-02-07T19:58:14.265Z,100512.23
2019-02-07T20:00:46.177Z,100508.34
2019-02-07T20:03:18.151Z,100505.33
2019-02-07T20:05:50.073Z,100502.30
2019-02-07T20:08:22.859Z,100507.44
2019-02-07T20:10:55.862Z,100513.43
2019-02-07T20:13:28.507Z,100525.13
2019-02-07T20:16:00.890Z,100515.88
2019-02-07T20:18:38.041Z,100528.06
2019-02-07T20:21:13.335Z,100528.86
2019-02-07T20:23:45.709Z,100534.06
2019-02-07T20:26:19.479Z,100534.52
2019-02-07T20:28:53.207Z,100539.73
2019-02-07T20:31:31.002Z,100546.25
2019-02-07T20:34:01.351Z,100547.11
2019-02-07T20:36:33.555Z,100544.91
2019-02-07T20:39:09.092Z,100542.25
2019-02-07T20:41:42.031Z,100547.00
2019-02-07T20:44:14.567Z,100551.70
2019-02-07T20:46:50.956Z,100549.94
2019-02-07T20:49:26.827Z,100559.09
2019-02-07T20:51:58.969Z,100557.38
2019-02-07T20:54:39.401Z,100556.05
2019-02-07T20:57:15.456Z,100566.06
2019-02-07T20:59:49.410Z,100560.38
2019-02-07T21:05:47.477Z,100567.80
2019-02-07T21:08:19.358Z,100560.37
2019-02-07T21:10:51.686Z,100577.31
2019-02-07T21:13:23.622Z,100572.92
2019-02-07T21:15:55.482Z,100573.82
2019-02-07T21:18:27.466Z,100577.31
2019-02-07T21:20:59.322Z,100582.56
2019-02-07T21:23:31.172Z,100586.09
2019-02-07T21:26:03.074Z,100593.12
2019-02-07T21:28:34.951Z,100591.39
2019-02-07T21:31:07.003Z,100590.51
2019-02-07T21:33:38.874Z,100583.93
2019-02-07T21:36:10.472Z,100580.87
2019-02-07T21:38:43.982Z,100586.90
2019-02-07T21:41:16.324Z,100598.98
2019-02-07T21:43:50.898Z,100598.92
2019-02-07T21:46:26.166Z,100607.23
2019-02-07T21:48:58.137Z,100605.92
2019-02-07T21:51:30.201Z,100612.92
2019-02-07T21:54:02.454Z,100614.97
2019-02-07T21:56:34.487Z,100618.41
2019-02-07T21:59:06.635Z,100616.20
2019-02-07T22:01:38.566Z,100626.58
2019-02-07T22:04:10.650Z,100632.66
2019-02-07T22:06:42.548Z,100630.81
2019-02-07T22:09:15.434Z,100633.42
2019-02-07T22:11:47.504Z,100638.98
2019-02-07T22:14:19.371Z,100637.19
2019-02-07T22:16:51.250Z,100636.71
2019-02-07T22:19:23.119Z,100637.22
2019-02-07T22:21:54.958Z,100632.31
2019-02-07T22:24:26.846Z,100636.11
2019-02-07T22:26:58.691Z,100638.41
2019-02-07T22:29:30.581Z,100640.98
2019-02-07T22:32:02.466Z,100648.39
2019-02-07T22:34:34.281Z,100657.55
2019-02-07T22:37:06.223Z,100654.61
2019-02-07T22:39:38.052Z,100651.03
2019-02-07T22:42:09.935Z,100648.84
2019-02-07T22:44:41.762Z,100648.02
2019-02-07T22:47:13.569Z,100659.31
2019-02-07T22:49:45.401Z,100659.31
2019-02-07T22:52:17.182Z,100669.19
2019-02-07T22:54:48.972Z,100672.16
2019-02-07T22:57:20.749Z,100671.16
2019-02-07T22:59:52.555Z,100677.80
2019-02-07T23:02:24.987Z,100684.23
2019-02-07T23:04:56.872Z,100679.08
2019-02-07T23:07:28.666Z,100683.90
2019-02-07T23:10:00.667Z,100686.54
2019-02-07T23:12:32.631Z,100689.60
2019-02-07T23:15:06.131Z,100682.98
2019-02-07T23:17:38.762Z,100682.05
2019-02-07T23:20:11.074Z,100687.72
2019-02-07T23:22:42.937Z,100668.62
2019-02-07T23:25:14.858Z,100665.59
2019-02-07T23:27:46.691Z,100687.23
2019-02-07T23:30:20.974Z,100687.52
2019-02-07T23:32:52.795Z,100690.39
2019-02-07T23:35:24.689Z,100689.15
2019-02-07T23:37:56.505Z,100692.21
2019-02-07T23:40:28.349Z,100696.58
2019-02-07T23:43:00.725Z,100693.81
2019-02-07T23:45:32.633Z,100695.94
2019-02-07T23:48:04.769Z,100696.52
2019-02-07T23:50:36.583Z,100689.41
2019-02-07T23:53:14.427Z,100692.97
2019-02-07T23:55:42.034Z,100701.96
2019-02-07T23:58:13.789Z,100702.88
